Time;durP1;ratioP1;P1;durP2;ratioP2;P2;SDS_P1;SDS_P2;PMS_P1;PMS_P2;Temp;Humidity;BMP_temperature;BMP_pressure;BME280_temperature;BME280_humidity;BME280_pressure;Samples;Min_cycle;Max_cycle;Signal;HPM_P1;HPM_P2
2023/03/21 00:01:56;;;;;;;3.75;2.10;;;12.50;99.90;;;;;;4995177;28;20191;-66
2023/03/21 00:04:25;;;;;;;3.58;1.73;;;12.50;99.90;;;;;;4987572;28;20188;-65
2023/03/21 00:06:51;;;;;;;4.03;1.80;;;12.50;99.90;;;;;;4975905;28;20203;-65
2023/03/21 00:09:17;;;;;;;3.70;1.70;;;12.50;99.90;;;;;;4978774;28;20207;-65
2023/03/21 00:11:45;;;;;;;2.75;1.98;;;12.50;99.90;;;;;;4981717;28;20207;-65
2023/03/21 00:14:13;;;;;;;3.20;1.77;;;12.50;99.90;;;;;;4990572;28;20192;-65
2023/03/21 00:16:38;;;;;;;3.53;2.10;;;12.50;99.90;;;;;;4970165;28;20267;-65
2023/03/21 00:19:08;;;;;;;3.22;2.00;;;12.50;99.90;;;;;;4979360;28;20270;-64
2023/03/21 00:21:37;;;;;;;4.70;2.20;;;12.50;99.90;;;;;;4975313;28;20215;-65
2023/03/21 00:24:03;;;;;;;4.15;1.95;;;12.50;99.90;;;;;;4979304;28;20200;-65
2023/03/21 00:26:32;;;;;;;3.08;2.00;;;12.50;99.90;;;;;;4988879;28;20184;-65
2023/03/21 00:28:58;;;;;;;2.67;1.90;;;12.50;99.90;;;;;;4985018;28;20215;-65
2023/03/21 00:31:23;;;;;;;3.53;2.10;;;12.50;99.90;;;;;;4976691;28;20259;-65
2023/03/21 00:33:49;;;;;;;3.58;2.20;;;12.50;99.90;;;;;;4981843;28;20272;-65
2023/03/21 00:36:17;;;;;;;3.83;1.90;;;12.50;99.90;;;;;;4971864;28;20204;-65
2023/03/21 00:38:45;;;;;;;3.42;1.98;;;12.40;99.90;;;;;;4969657;28;20269;-64
2023/03/21 00:41:15;;;;;;;5.30;2.25;;;12.50;99.90;;;;;;4985139;28;20196;-65
2023/03/21 00:43:40;;;;;;;3.95;2.38;;;12.50;99.90;;;;;;4980004;28;20200;-65
2023/03/21 00:46:06;;;;;;;5.50;2.70;;;12.50;99.90;;;;;;4989509;28;20184;-65
2023/03/21 00:48:32;;;;;;;5.20;2.63;;;12.50;99.90;;;;;;4990103;28;20211;-65
2023/03/21 00:50:59;;;;;;;4.13;2.40;;;12.50;99.90;;;;;;4976584;28;20229;-65
2023/03/21 00:53:25;;;;;;;3.70;2.33;;;12.50;99.90;;;;;;4976024;28;20180;-65
2023/03/21 00:55:51;;;;;;;4.65;2.15;;;12.40;99.90;;;;;;4984248;28;20218;-65
2023/03/21 00:58:17;;;;;;;4.63;2.53;;;12.50;99.90;;;;;;4991045;28;20176;-65
2023/03/21 01:00:45;;;;;;;4.25;2.20;;;12.50;99.90;;;;;;4975435;28;20187;-65
2023/03/21 01:03:12;;;;;;;3.97;2.20;;;12.40;99.90;;;;;;4975283;28;20287;-65
2023/03/21 01:08:28;;;;;;;4.88;2.15;;;12.50;99.90;;;;;;4972687;28;20199;-64
2023/03/21 01:11:00;;;;;;;5.10;1.95;;;12.40;99.90;;;;;;4976603;28;20207;-65
2023/03/21 01:13:28;;;;;;;4.55;2.20;;;12.40;99.90;;;;;;4978368;28;20317;-65
2023/03/21 01:15:57;;;;;;;5.22;2.30;;;12.30;99.90;;;;;;4991192;28;20199;-65
2023/03/21 01:18:27;;;;;;;2.97;2.10;;;12.40;99.90;;;;;;4989033;28;20182;-64
2023/03/21 01:20:56;;;;;;;3.10;1.83;;;12.40;99.90;;;;;;4985873;28;20210;-65
2023/03/21 01:23:22;;;;;;;3.35;2.25;;;12.40;99.90;;;;;;4990574;28;20200;-65
2023/03/21 01:25:49;;;;;;;5.35;2.13;;;12.40;99.90;;;;;;4975048;28;20186;-64
2023/03/21 01:28:15;;;;;;;4.15;2.10;;;12.40;99.90;;;;;;4997567;28;20187;-65
2023/03/21 01:30:53;;;;;;;5.55;2.50;;;12.40;99.90;;;;;;4998305;28;20207;-65
2023/03/21 01:33:23;;;;;;;4.97;2.42;;;12.40;99.90;;;;;;4971038;28;20262;-65
2023/03/21 01:35:48;;;;;;;3.67;2.38;;;12.50;99.90;;;;;;4974648;28;20271;-64
2023/03/21 01:38:16;;;;;;;5.35;2.30;;;12.30;99.90;;;;;;5000625;28;20242;-65
2023/03/21 01:40:46;;;;;;;5.32;2.30;;;12.40;99.90;;;;;;4995719;28;20175;-64
2023/03/21 01:43:24;;;;;;;3.45;2.20;;;12.40;99.90;;;;;;4979035;28;20208;-65
2023/03/21 01:46:20;;;;;;;4.88;2.58;;;12.30;99.90;;;;;;4981438;28;20186;-65
2023/03/21 01:48:56;;;;;;;5.72;2.58;;;12.30;99.90;;;;;;4978796;28;20232;-65
2023/03/21 01:51:27;;;;;;;4.20;2.20;;;12.30;99.90;;;;;;4983501;28;20214;-64
2023/03/21 01:53:54;;;;;;;4.53;2.42;;;12.30;99.90;;;;;;4995254;28;20239;-65
2023/03/21 01:56:27;;;;;;;4.80;2.25;;;12.30;99.90;;;;;;4983889;28;20215;-67
2023/03/21 01:59:02;;;;;;;3.60;2.20;;;12.30;99.90;;;;;;4995405;28;20184;-65
2023/03/21 02:01:30;;;;;;;5.95;2.40;;;12.30;99.90;;;;;;4986229;28;20179;-64
2023/03/21 02:04:02;;;;;;;4.70;2.20;;;12.30;99.90;;;;;;5002978;28;20237;-65
2023/03/21 02:06:53;;;;;;;5.15;2.35;;;12.30;99.90;;;;;;4978724;28;20278;-64
2023/03/21 02:09:28;;;;;;;3.53;2.15;;;12.30;99.90;;;;;;4959651;29;20243;-65
2023/03/21 02:11:54;;;;;;;4.68;2.38;;;12.30;99.90;;;;;;4990812;28;20195;-65
2023/03/21 02:14:20;;;;;;;5.97;2.17;;;12.30;99.90;;;;;;4981265;28;20183;-65
2023/03/21 02:17:23;;;;;;;4.45;2.35;;;12.30;99.90;;;;;;4972121;28;20190;-65
2023/03/21 02:20:20;;;;;;;3.42;1.80;;;12.30;99.90;;;;;;4994880;28;20207;-65
2023/03/21 02:23:05;;;;;;;6.80;2.78;;;12.30;99.90;;;;;;4975558;28;20314;-64
2023/03/21 02:25:49;;;;;;;2.75;2.20;;;12.30;99.90;;;;;;4990158;28;20287;-65
2023/03/21 02:28:37;;;;;;;3.92;2.25;;;12.30;99.90;;;;;;4993364;28;20246;-65
2023/03/21 02:31:13;;;;;;;5.00;2.22;;;12.30;99.90;;;;;;4978421;28;20212;-66
2023/03/21 02:33:51;;;;;;;2.97;2.05;;;12.30;99.90;;;;;;4987069;28;20183;-65
2023/03/21 02:36:29;;;;;;;3.53;2.10;;;12.30;99.90;;;;;;4982835;28;20178;-65
2023/03/21 02:39:17;;;;;;;4.50;2.28;;;12.30;99.90;;;;;;4977792;28;20204;-64
2023/03/21 02:42:04;;;;;;;4.90;2.30;;;12.30;99.90;;;;;;4984015;28;20448;-64
2023/03/21 02:45:00;;;;;;;4.70;2.10;;;12.30;99.90;;;;;;4995751;28;20187;-64
2023/03/21 02:47:48;;;;;;;4.53;2.50;;;12.30;99.90;;;;;;4994339;28;20183;-65
2023/03/21 02:50:42;;;;;;;4.43;2.40;;;12.30;99.90;;;;;;4974157;28;20200;-65
2023/03/21 02:53:10;;;;;;;4.38;2.33;;;12.30;99.90;;;;;;4993822;28;20283;-64
2023/03/21 02:55:41;;;;;;;4.35;2.78;;;12.20;99.90;;;;;;4993359;28;20176;-64
2023/03/21 02:58:09;;;;;;;5.38;2.40;;;12.20;99.90;;;;;;4991515;28;20255;-65
2023/03/21 03:00:35;;;;;;;5.88;2.63;;;12.20;99.90;;;;;;4992572;28;20180;-65
2023/03/21 03:03:02;;;;;;;7.05;2.30;;;12.20;99.90;;;;;;4980511;28;20180;-65
2023/03/21 03:05:32;;;;;;;4.47;2.53;;;12.20;99.90;;;;;;4975752;28;20222;-65
2023/03/21 03:08:07;;;;;;;4.38;2.35;;;12.20;99.90;;;;;;4979514;28;20184;-65
2023/03/21 03:10:59;;;;;;;4.68;2.65;;;12.10;99.90;;;;;;4991436;28;20231;-65
2023/03/21 03:13:56;;;;;;;3.55;2.05;;;12.10;99.90;;;;;;4978475;28;20216;-65
2023/03/21 03:16:40;;;;;;;3.65;2.00;;;12.10;99.90;;;;;;4973928;28;20187;-64
2023/03/21 03:19:20;;;;;;;3.17;2.15;;;12.10;99.90;;;;;;4985153;28;20184;-65
2023/03/21 03:22:05;;;;;;;3.85;2.05;;;12.10;99.90;;;;;;4984875;28;20191;-65
2023/03/21 03:24:37;;;;;;;4.50;2.13;;;12.10;99.90;;;;;;4986141;28;20204;-64
2023/03/21 03:27:10;;;;;;;3.65;2.13;;;12.10;99.90;;;;;;4990196;28;20195;-68
2023/03/21 03:29:39;;;;;;;4.43;2.20;;;12.10;99.90;;;;;;4986414;28;20540;-68
2023/03/21 03:32:30;;;;;;;4.10;2.30;;;12.10;99.90;;;;;;4969445;28;20179;-66
2023/03/21 03:34:57;;;;;;;3.80;2.30;;;12.00;99.90;;;;;;4992094;28;20235;-68
2023/03/21 03:37:27;;;;;;;2.95;2.10;;;12.10;99.90;;;;;;4987573;28;20183;-68
2023/03/21 03:39:56;;;;;;;4.65;2.22;;;12.10;99.90;;;;;;4984704;28;20180;-67
2023/03/21 03:42:34;;;;;;;5.25;2.00;;;12.00;99.90;;;;;;4987635;28;20246;-67
2023/03/21 03:45:04;;;;;;;4.95;2.30;;;12.10;99.90;;;;;;4978462;28;20182;-68
2023/03/21 03:47:48;;;;;;;6.15;2.25;;;12.00;99.90;;;;;;4993193;28;20185;-68
2023/03/21 03:50:38;;;;;;;4.18;2.58;;;12.10;99.90;;;;;;4992540;28;20265;-67
2023/03/21 03:53:29;;;;;;;5.38;2.15;;;12.10;99.90;;;;;;4983241;28;20164;-68
2023/03/21 03:55:56;;;;;;;4.80;2.17;;;12.00;99.90;;;;;;4997204;28;20198;-68
2023/03/21 03:58:23;;;;;;;5.05;2.15;;;12.10;99.90;;;;;;4977961;28;20267;-67
2023/03/21 04:00:52;;;;;;;4.07;2.33;;;12.10;99.90;;;;;;4978992;28;20175;-68
2023/03/21 04:03:20;;;;;;;2.40;2.05;;;12.00;99.90;;;;;;4982395;28;20272;-67
2023/03/21 04:05:46;;;;;;;4.85;2.05;;;11.90;99.90;;;;;;4992409;28;20246;-68
2023/03/21 04:08:15;;;;;;;3.45;1.92;;;12.00;99.90;;;;;;4992494;28;20188;-67
2023/03/21 04:10:42;;;;;;;4.78;2.00;;;12.00;99.90;;;;;;4976433;28;20262;-70
2023/03/21 04:13:10;;;;;;;5.10;2.55;;;11.90;99.90;;;;;;4992634;28;20172;-67
2023/03/21 04:15:36;;;;;;;4.18;2.20;;;11.90;99.90;;;;;;4976057;28;20226;-68
2023/03/21 04:18:04;;;;;;;4.38;2.60;;;11.90;99.90;;;;;;4976439;28;20180;-69
2023/03/21 04:20:32;;;;;;;4.97;2.20;;;11.90;99.90;;;;;;4990911;28;20187;-69
2023/03/21 04:23:00;;;;;;;3.58;2.30;;;11.90;99.90;;;;;;4976081;28;20355;-69
2023/03/21 04:25:27;;;;;;;3.70;2.17;;;11.90;99.90;;;;;;4972626;28;20189;-68
2023/03/21 04:27:54;;;;;;;3.13;2.10;;;11.90;99.90;;;;;;4993451;28;20195;-65
2023/03/21 04:30:23;;;;;;;3.72;2.10;;;11.90;99.90;;;;;;4988187;28;20228;-69
2023/03/21 04:32:55;;;;;;;5.93;2.67;;;11.80;99.90;;;;;;4975658;28;20176;-68
2023/03/21 04:35:22;;;;;;;3.38;2.28;;;12.00;99.90;;;;;;4975402;28;20180;-64
2023/03/21 04:37:52;;;;;;;4.65;2.13;;;11.90;99.90;;;;;;4966219;28;20186;-68
2023/03/21 04:40:20;;;;;;;3.85;2.22;;;11.90;99.90;;;;;;4991428;28;20278;-67
2023/03/21 04:42:47;;;;;;;3.92;2.20;;;12.00;99.90;;;;;;4975248;28;20184;-68
2023/03/21 04:45:15;;;;;;;3.78;2.40;;;12.00;99.90;;;;;;4991713;28;20184;-67
2023/03/21 04:47:45;;;;;;;5.72;2.47;;;11.90;99.90;;;;;;4974921;28;20180;-68
2023/03/21 04:50:14;;;;;;;3.53;2.33;;;11.90;99.90;;;;;;4964271;28;20215;-68
2023/03/21 04:52:40;;;;;;;3.42;2.45;;;11.90;99.90;;;;;;4975162;28;20187;-69
2023/03/21 04:55:10;;;;;;;3.78;2.22;;;11.90;99.90;;;;;;4983736;28;20268;-69
2023/03/21 04:57:40;;;;;;;4.03;2.28;;;11.90;99.90;;;;;;4979435;28;20217;-68
2023/03/21 05:00:10;;;;;;;4.40;2.50;;;12.00;99.90;;;;;;4971394;28;20199;-68
2023/03/21 05:02:38;;;;;;;4.13;2.30;;;12.00;99.90;;;;;;4987474;28;20204;-68
2023/03/21 05:05:04;;;;;;;6.55;2.30;;;12.00;99.90;;;;;;4974752;28;20238;-64
2023/03/21 05:07:32;;;;;;;4.53;2.30;;;12.00;99.90;;;;;;4989588;28;20194;-67
2023/03/21 05:10:00;;;;;;;4.03;2.20;;;12.00;99.90;;;;;;4974351;28;20207;-68
2023/03/21 05:12:26;;;;;;;3.30;2.42;;;12.00;99.90;;;;;;4975062;28;20246;-66
2023/03/21 05:14:56;;;;;;;3.42;2.28;;;12.00;99.90;;;;;;4974318;28;20378;-68
2023/03/21 05:17:27;;;;;;;4.20;2.22;;;12.00;99.90;;;;;;4981098;28;20184;-66
2023/03/21 05:19:55;;;;;;;4.72;2.60;;;12.00;99.90;;;;;;4982952;28;20168;-67
2023/03/21 05:22:23;;;;;;;5.00;2.42;;;12.00;99.90;;;;;;4991112;28;20526;-67
2023/03/21 05:24:54;;;;;;;3.20;1.90;;;12.00;99.90;;;;;;4974587;28;20214;-67
2023/03/21 05:27:33;;;;;;;3.03;2.15;;;12.00;99.90;;;;;;4974493;28;20270;-67
2023/03/21 05:30:08;;;;;;;4.88;2.33;;;11.90;99.90;;;;;;4990876;28;20199;-68
2023/03/21 05:32:39;;;;;;;3.70;2.30;;;12.00;99.90;;;;;;4974446;28;20182;-68
2023/03/21 05:35:11;;;;;;;3.63;2.30;;;12.00;99.90;;;;;;4974532;28;20187;-69
2023/03/21 05:37:37;;;;;;;3.63;2.13;;;12.00;99.90;;;;;;4981016;28;20203;-69
2023/03/21 05:40:08;;;;;;;3.08;2.20;;;12.00;99.90;;;;;;4976792;28;20188;-65
2023/03/21 05:42:34;;;;;;;4.28;2.20;;;12.00;99.90;;;;;;5004281;28;20172;-67
2023/03/21 05:44:59;;;;;;;6.30;2.17;;;12.00;99.90;;;;;;4992138;28;20203;-67
2023/03/21 05:47:28;;;;;;;3.67;2.30;;;11.90;99.90;;;;;;4984455;28;20180;-67
2023/03/21 05:49:53;;;;;;;4.90;2.40;;;11.90;99.90;;;;;;4974596;28;20247;-67
2023/03/21 05:52:19;;;;;;;5.15;2.78;;;12.00;99.90;;;;;;4973733;28;20228;-68
2023/03/21 05:54:45;;;;;;;3.67;2.25;;;11.90;99.90;;;;;;4982575;28;20187;-69
2023/03/21 05:57:10;;;;;;;5.82;2.28;;;11.90;99.90;;;;;;4990600;28;20223;-68
2023/03/21 05:59:38;;;;;;;3.50;2.35;;;11.90;99.90;;;;;;4974585;28;20200;-69
2023/03/21 06:02:06;;;;;;;6.75;2.47;;;11.90;99.90;;;;;;4979656;28;20176;-67
2023/03/21 06:04:34;;;;;;;4.05;2.38;;;11.90;99.90;;;;;;4974055;28;20203;-68
2023/03/21 06:07:00;;;;;;;4.63;2.08;;;12.00;99.90;;;;;;4973490;28;20215;-68
2023/03/21 06:09:26;;;;;;;3.85;2.30;;;11.90;99.90;;;;;;4981621;28;20230;-68
2023/03/21 06:11:53;;;;;;;4.75;2.20;;;11.90;99.90;;;;;;4975429;28;20181;-68
2023/03/21 06:14:19;;;;;;;5.18;2.40;;;11.90;99.90;;;;;;4975341;28;20190;-69
2023/03/21 06:16:45;;;;;;;5.57;2.50;;;12.00;99.90;;;;;;4974771;28;20200;-69
2023/03/21 06:19:11;;;;;;;4.40;2.60;;;12.00;99.90;;;;;;4965135;28;20181;-68
2023/03/21 06:21:37;;;;;;;5.95;2.78;;;12.00;99.90;;;;;;4985990;28;20198;-68
2023/03/21 06:24:05;;;;;;;4.00;2.50;;;12.00;99.90;;;;;;4988528;28;20287;-68
2023/03/21 06:26:31;;;;;;;4.35;2.55;;;12.00;99.90;;;;;;4993976;28;20274;-68
2023/03/21 06:28:59;;;;;;;3.28;2.60;;;12.00;99.90;;;;;;4977680;28;20227;-67
2023/03/21 06:31:25;;;;;;;5.78;2.63;;;12.10;99.90;;;;;;4977700;28;20184;-67
2023/03/21 06:33:56;;;;;;;5.18;2.80;;;12.10;99.90;;;;;;4990555;28;20185;-69
2023/03/21 06:36:24;;;;;;;4.05;2.58;;;12.10;99.90;;;;;;4982303;28;20202;-69
2023/03/21 06:38:51;;;;;;;5.78;2.80;;;12.10;99.90;;;;;;4995294;28;20242;-68
2023/03/21 06:41:20;;;;;;;6.30;2.78;;;12.10;99.90;;;;;;4990288;28;20188;-66
2023/03/21 06:43:47;;;;;;;4.95;2.38;;;12.20;99.90;;;;;;4977320;28;20287;-68
2023/03/21 06:46:13;;;;;;;5.22;2.92;;;12.20;99.90;;;;;;4977527;28;20168;-67
2023/03/21 06:48:43;;;;;;;5.85;2.60;;;12.20;99.90;;;;;;4993659;28;20232;-67
2023/03/21 06:51:10;;;;;;;5.88;2.78;;;12.20;99.90;;;;;;4985957;28;20219;-69
2023/03/21 06:53:36;;;;;;;3.65;2.50;;;12.20;99.90;;;;;;4977745;28;20207;-68
2023/03/21 06:56:04;;;;;;;4.22;2.60;;;12.30;99.90;;;;;;4978120;28;20196;-69
2023/03/21 06:58:30;;;;;;;4.75;2.55;;;12.30;99.90;;;;;;4977796;28;20259;-69
2023/03/21 07:00:59;;;;;;;4.55;2.88;;;12.30;99.90;;;;;;4993825;28;20203;-69
2023/03/21 07:03:24;;;;;;;3.95;2.88;;;12.30;99.90;;;;;;4979053;28;20204;-69
2023/03/21 07:05:50;;;;;;;4.82;2.78;;;12.40;99.90;;;;;;4977705;28;20200;-69
2023/03/21 07:08:16;;;;;;;4.82;2.65;;;12.40;99.90;;;;;;4977449;28;20180;-69
2023/03/21 07:10:43;;;;;;;4.15;2.60;;;12.40;99.90;;;;;;4977945;28;20264;-69
2023/03/21 07:13:11;;;;;;;6.30;2.92;;;12.40;99.90;;;;;;4993930;28;20214;-69
2023/03/21 07:15:42;;;;;;;4.28;2.53;;;12.40;99.90;;;;;;4993727;28;20204;-70
2023/03/21 07:18:08;;;;;;;5.18;2.92;;;12.50;99.90;;;;;;4977420;28;20180;-70
2023/03/21 07:20:36;;;;;;;5.05;3.13;;;12.50;99.90;;;;;;4993217;28;20180;-70
2023/03/21 07:23:06;;;;;;;7.25;3.60;;;12.50;99.90;;;;;;4977228;28;20184;-70
2023/03/21 07:25:32;;;;;;;4.97;3.35;;;12.50;99.90;;;;;;4990451;28;20180;-71
2023/03/21 07:28:00;;;;;;;6.80;4.00;;;12.50;99.90;;;;;;4977072;28;20211;-70
2023/03/21 07:30:26;;;;;;;4.93;3.03;;;12.50;99.90;;;;;;4977688;28;20200;-71
2023/03/21 07:32:54;;;;;;;5.75;3.20;;;12.50;99.90;;;;;;4992909;28;20183;-68
2023/03/21 07:35:19;;;;;;;4.78;3.25;;;12.50;99.90;;;;;;4960610;28;20499;-70
2023/03/21 07:37:45;;;;;;;6.07;3.42;;;12.50;99.90;;;;;;4973942;28;20215;-69
2023/03/21 07:40:13;;;;;;;5.05;2.85;;;12.40;99.90;;;;;;4993447;28;20191;-69
2023/03/21 07:42:40;;;;;;;7.18;3.50;;;12.40;99.90;;;;;;4977013;28;20176;-67
2023/03/21 07:45:07;;;;;;;6.30;3.20;;;12.30;99.90;;;;;;4977473;28;20207;-69
2023/03/21 07:47:37;;;;;;;5.70;3.25;;;12.30;99.90;;;;;;4989561;28;20227;-69
2023/03/21 07:50:06;;;;;;;5.68;3.33;;;12.20;99.90;;;;;;4993346;28;20200;-65
2023/03/21 07:52:34;;;;;;;5.63;3.13;;;12.10;99.90;;;;;;4989388;28;20181;-70
2023/03/21 07:54:59;;;;;;;5.90;2.75;;;12.00;99.90;;;;;;4976659;28;20278;-72
2023/03/21 07:57:25;;;;;;;3.92;2.60;;;11.90;99.90;;;;;;4993096;28;20279;-69
2023/03/21 07:59:51;;;;;;;4.20;2.85;;;11.80;99.90;;;;;;4982704;28;20176;-69
2023/03/21 08:02:17;;;;;;;4.93;2.90;;;11.80;99.90;;;;;;4976743;28;20199;-69
2023/03/21 08:04:43;;;;;;;5.63;3.00;;;11.80;99.90;;;;;;4975747;28;20227;-69
2023/03/21 08:07:10;;;;;;;4.75;3.30;;;11.70;99.90;;;;;;4969475;28;20208;-70
2023/03/21 08:09:36;;;;;;;7.45;3.45;;;11.60;99.90;;;;;;4992442;28;20206;-70
2023/03/21 08:12:10;;;;;;;8.90;3.72;;;11.60;99.90;;;;;;4992770;28;20168;-67
2023/03/21 08:14:36;;;;;;;5.80;3.30;;;11.60;99.90;;;;;;4976534;28;20210;-70
2023/03/21 08:17:02;;;;;;;6.20;3.40;;;11.60;99.90;;;;;;4986280;28;20176;-70
2023/03/21 08:19:28;;;;;;;6.63;3.47;;;11.60;99.90;;;;;;4993057;28;20323;-69
2023/03/21 08:22:00;;;;;;;4.35;2.85;;;11.60;99.90;;;;;;4976364;28;20208;-70
2023/03/21 08:24:27;;;;;;;7.20;3.42;;;11.50;99.90;;;;;;4989409;28;20182;-71
2023/03/21 08:26:56;;;;;;;5.18;3.47;;;11.50;99.90;;;;;;4976266;28;20208;-70
2023/03/21 08:29:24;;;;;;;7.35;3.33;;;11.50;99.90;;;;;;4977621;28;20252;-72
2023/03/21 08:31:50;;;;;;;6.35;3.42;;;11.50;99.90;;;;;;4992365;28;20245;-70
2023/03/21 08:34:16;;;;;;;5.75;3.20;;;11.50;99.90;;;;;;4976131;28;20176;-68
2023/03/21 08:36:45;;;;;;;6.68;3.72;;;11.50;99.90;;;;;;4976698;28;20215;-70
2023/03/21 08:39:13;;;;;;;4.70;3.30;;;11.60;99.90;;;;;;4992292;28;20279;-69
2023/03/21 08:41:41;;;;;;;5.75;3.55;;;11.60;99.90;;;;;;4969265;28;20191;-69
2023/03/21 08:44:10;;;;;;;5.35;3.20;;;11.60;99.90;;;;;;4969088;28;20176;-69
2023/03/21 08:46:35;;;;;;;5.88;3.60;;;11.60;99.90;;;;;;4973104;28;20205;-69
2023/03/21 08:49:01;;;;;;;5.25;3.70;;;11.60;99.90;;;;;;4986933;28;20196;-68
2023/03/21 08:51:27;;;;;;;6.78;3.40;;;11.60;99.90;;;;;;4975711;28;20250;-69
2023/03/21 08:53:52;;;;;;;6.38;3.40;;;11.60;99.90;;;;;;4976052;28;20226;-69
2023/03/21 08:56:20;;;;;;;6.63;3.55;;;11.60;99.90;;;;;;4976181;28;20182;-70
2023/03/21 08:58:48;;;;;;;4.70;3.35;;;11.60;99.90;;;;;;4983010;28;20204;-69
2023/03/21 09:01:18;;;;;;;10.00;3.80;;;11.60;99.90;;;;;;4972782;28;20172;-69
2023/03/21 09:03:44;;;;;;;5.43;3.70;;;11.60;99.90;;;;;;4983472;28;20232;-70
2023/03/21 09:06:13;;;;;;;7.35;3.47;;;11.60;99.90;;;;;;4965974;28;20192;-69
2023/03/21 09:08:42;;;;;;;4.88;3.42;;;11.60;99.90;;;;;;4991812;28;20172;-72
2023/03/21 09:11:08;;;;;;;5.35;3.50;;;11.60;99.90;;;;;;4988458;28;20271;-70
2023/03/21 09:13:34;;;;;;;6.90;3.78;;;11.60;99.90;;;;;;4972649;28;20204;-69
2023/03/21 09:16:00;;;;;;;4.10;3.25;;;11.60;99.90;;;;;;4974315;28;20187;-70
2023/03/21 09:18:43;;;;;;;7.35;3.97;;;11.60;99.90;;;;;;4991157;28;20439;-70
2023/03/21 09:21:15;;;;;;;6.63;4.15;;;11.60;99.90;;;;;;4975548;28;20210;-70
2023/03/21 09:23:41;;;;;;;4.85;3.55;;;11.60;99.90;;;;;;4975224;28;20195;-68
2023/03/21 09:26:08;;;;;;;4.70;3.70;;;11.60;99.90;;;;;;4988739;28;20191;-69
2023/03/21 09:28:36;;;;;;;8.43;3.83;;;11.50;99.90;;;;;;4972577;28;20185;-70
2023/03/21 09:31:02;;;;;;;5.93;3.53;;;11.50;99.90;;;;;;4978549;28;20218;-70
2023/03/21 09:33:28;;;;;;;6.80;3.67;;;11.50;99.90;;;;;;4980343;28;20165;-70
2023/03/21 09:35:59;;;;;;;8.10;4.28;;;11.50;99.90;;;;;;4975780;28;20195;-69
2023/03/21 09:38:29;;;;;;;5.03;3.75;;;11.50;99.90;;;;;;4980719;28;20223;-70
2023/03/21 09:41:12;;;;;;;7.45;4.55;;;11.50;99.90;;;;;;4975420;28;20211;-69
2023/03/21 09:43:55;;;;;;;5.50;4.00;;;11.50;99.90;;;;;;4991462;28;20342;-70
2023/03/21 09:46:35;;;;;;;8.27;4.72;;;11.50;99.90;;;;;;4991538;28;20173;-69
2023/03/21 09:49:08;;;;;;;7.53;4.07;;;11.50;99.90;;;;;;4987658;28;20200;-69
2023/03/21 09:51:40;;;;;;;6.60;4.13;;;11.50;99.90;;;;;;4991862;28;20307;-68
2023/03/21 09:54:29;;;;;;;5.72;4.10;;;11.50;99.90;;;;;;4976776;28;20180;-71
2023/03/21 09:56:59;;;;;;;5.38;3.95;;;11.50;99.90;;;;;;4987104;28;20196;-70
2023/03/21 09:59:40;;;;;;;5.35;3.80;;;11.50;99.90;;;;;;4984863;28;20187;-70
2023/03/21 10:02:37;;;;;;;5.40;3.70;;;11.50;99.90;;;;;;4979771;28;20184;-70
2023/03/21 10:05:18;;;;;;;7.45;4.03;;;11.50;99.90;;;;;;4995674;28;20188;-70
2023/03/21 10:07:54;;;;;;;6.20;4.30;;;11.50;99.90;;;;;;4984531;28;20191;-65
2023/03/21 10:10:48;;;;;;;6.22;4.43;;;11.50;99.90;;;;;;4993786;28;20261;-69
2023/03/21 10:13:26;;;;;;;5.53;4.03;;;11.50;99.90;;;;;;4978768;28;20555;-66
2023/03/21 10:16:05;;;;;;;5.63;4.03;;;11.50;99.90;;;;;;4982881;28;20207;-70
2023/03/21 10:18:33;;;;;;;7.47;4.63;;;11.60;99.90;;;;;;4966918;28;20175;-70
2023/03/21 10:21:06;;;;;;;6.07;4.03;;;11.50;99.90;;;;;;4981438;28;20180;-68
2023/03/21 10:23:34;;;;;;;6.93;4.70;;;11.50;99.90;;;;;;4994771;28;20299;-70
2023/03/21 10:26:06;;;;;;;7.82;4.82;;;11.50;99.90;;;;;;4978086;28;20315;-68
2023/03/21 10:28:38;;;;;;;9.95;5.22;;;11.50;99.90;;;;;;4993967;28;20194;-69
2023/03/21 10:31:15;;;;;;;5.95;4.43;;;11.50;99.90;;;;;;4974090;28;20279;-69
2023/03/21 10:33:47;;;;;;;6.75;4.93;;;11.50;99.90;;;;;;4994318;28;20175;-67
2023/03/21 10:36:24;;;;;;;6.68;4.72;;;11.60;99.90;;;;;;4993283;28;20196;-70
2023/03/21 10:39:16;;;;;;;6.45;4.40;;;11.60;99.90;;;;;;4990640;28;20180;-70
2023/03/21 10:41:42;;;;;;;9.43;4.13;;;11.50;99.90;;;;;;4977341;28;20168;-68
2023/03/21 10:44:10;;;;;;;6.25;4.18;;;11.50;99.90;;;;;;4977898;28;20176;-69
2023/03/21 10:46:36;;;;;;;7.70;4.40;;;11.50;99.90;;;;;;4983496;28;21113;-65
2023/03/21 10:49:08;;;;;;;5.55;4.00;;;11.50;99.90;;;;;;4990819;28;20219;-68
2023/03/21 10:51:40;;;;;;;6.57;3.67;;;11.50;99.90;;;;;;4977630;28;20195;-69
2023/03/21 10:54:14;;;;;;;9.07;4.50;;;11.50;99.90;;;;;;4982930;28;20312;-69
2023/03/21 10:56:49;;;;;;;7.75;4.22;;;11.50;99.90;;;;;;4978333;28;20180;-68
2023/03/21 10:59:22;;;;;;;6.90;3.83;;;11.50;99.90;;;;;;4977347;28;20183;-68
2023/03/21 11:01:52;;;;;;;9.30;4.15;;;11.50;99.90;;;;;;4977620;28;20231;-70
2023/03/21 11:04:26;;;;;;;5.18;3.78;;;11.50;99.90;;;;;;4978436;28;20183;-69
2023/03/21 11:07:02;;;;;;;6.70;4.00;;;11.60;99.90;;;;;;4977307;28;20207;-66
2023/03/21 11:09:57;;;;;;;5.32;3.60;;;11.60;99.90;;;;;;4979455;28;20188;-68
2023/03/21 11:12:38;;;;;;;6.57;3.92;;;11.60;99.90;;;;;;4989452;28;20442;-69
2023/03/21 11:15:41;;;;;;;7.22;4.30;;;11.70;99.90;;;;;;4993367;28;20200;-68
2023/03/21 11:18:40;;;;;;;5.60;3.97;;;11.70;99.90;;;;;;4992959;28;20203;-68
2023/03/21 11:21:09;;;;;;;5.07;3.75;;;11.80;99.90;;;;;;4976299;28;20191;-68
2023/03/21 11:23:42;;;;;;;5.97;3.53;;;11.90;99.90;;;;;;4982383;28;20270;-70
2023/03/21 11:26:10;;;;;;;4.95;3.53;;;11.80;99.90;;;;;;4993273;28;20203;-68
2023/03/21 11:28:43;;;;;;;6.03;3.63;;;11.90;99.90;;;;;;4989547;28;20176;-68
2023/03/21 11:31:12;;;;;;;8.85;4.57;;;11.90;99.90;;;;;;4976930;28;20211;-69
2023/03/21 11:33:46;;;;;;;8.15;3.88;;;11.90;99.90;;;;;;4993209;28;20216;-65
2023/03/21 11:36:17;;;;;;;6.57;3.85;;;11.90;99.90;;;;;;4994391;28;20188;-65
2023/03/21 11:38:49;;;;;;;7.97;3.35;;;11.90;99.90;;;;;;4992973;28;20204;-65
2023/03/21 11:41:29;;;;;;;5.53;3.65;;;11.90;99.90;;;;;;4976173;28;20263;-65
2023/03/21 11:43:59;;;;;;;5.13;3.30;;;11.90;99.90;;;;;;4992638;28;20267;-65
2023/03/21 11:46:28;;;;;;;6.30;3.58;;;11.90;99.90;;;;;;4977671;28;20199;-65
2023/03/21 11:48:55;;;;;;;4.68;3.50;;;12.00;99.90;;;;;;4972638;28;20181;-65
2023/03/21 11:51:23;;;;;;;7.38;3.33;;;11.90;99.90;;;;;;4977520;28;20219;-65
2023/03/21 11:54:06;;;;;;;3.97;3.15;;;11.90;99.90;;;;;;4991411;28;20180;-65
2023/03/21 11:56:36;;;;;;;5.95;3.60;;;11.90;99.90;;;;;;4976453;28;20175;-66
2023/03/21 11:59:25;;;;;;;6.43;3.13;;;11.90;99.90;;;;;;4992391;28;20200;-66
2023/03/21 12:01:57;;;;;;;4.15;3.00;;;11.90;99.90;;;;;;4992333;28;20172;-67
2023/03/21 12:04:40;;;;;;;7.10;3.55;;;11.90;99.90;;;;;;4992110;28;20180;-66
2023/03/21 12:07:14;;;;;;;4.53;3.05;;;11.80;99.90;;;;;;4991617;28;20172;-66
2023/03/21 12:09:40;;;;;;;3.97;3.00;;;11.80;99.90;;;;;;4957284;28;20286;-66
2023/03/21 12:12:26;;;;;;;3.67;3.00;;;11.80;99.90;;;;;;4991990;28;20347;-66
2023/03/21 12:15:11;;;;;;;4.18;3.03;;;11.90;99.90;;;;;;4977351;28;20180;-66
2023/03/21 12:17:49;;;;;;;5.30;3.40;;;11.90;99.90;;;;;;4975591;28;20164;-66
2023/03/21 12:20:23;;;;;;;5.35;2.90;;;11.90;99.90;;;;;;4976366;28;20160;-65
2023/03/21 12:23:11;;;;;;;6.38;3.33;;;11.90;99.90;;;;;;4988737;28;20203;-65
2023/03/21 12:25:49;;;;;;;4.20;2.92;;;11.90;99.90;;;;;;4972393;28;20292;-65
2023/03/21 12:28:37;;;;;;;5.50;3.58;;;12.00;99.90;;;;;;4988316;28;20179;-66
2023/03/21 12:31:13;;;;;;;6.03;3.90;;;12.00;99.90;;;;;;4991882;28;20204;-66
2023/03/21 12:33:47;;;;;;;6.03;3.38;;;12.00;99.90;;;;;;4983632;28;20183;-65
2023/03/21 12:36:47;;;;;;;4.15;3.50;;;12.00;99.90;;;;;;4991655;28;20177;-66
2023/03/21 12:39:33;;;;;;;6.78;3.83;;;12.00;99.90;;;;;;4991935;28;20295;-65
2023/03/21 12:42:23;;;;;;;7.32;3.65;;;12.00;99.90;;;;;;4991943;28;20187;-67
2023/03/21 12:45:09;;;;;;;7.43;3.95;;;12.10;99.90;;;;;;4991672;28;20206;-66
2023/03/21 12:47:41;;;;;;;5.55;3.53;;;12.10;99.90;;;;;;4962247;28;20184;-65
2023/03/21 12:50:28;;;;;;;5.70;4.03;;;12.10;99.90;;;;;;4991468;28;20320;-66
2023/03/21 12:53:00;;;;;;;6.15;3.78;;;12.10;99.90;;;;;;4976159;28;20199;-65
2023/03/21 12:55:32;;;;;;;5.72;3.78;;;12.10;99.90;;;;;;4973002;28;20183;-65
2023/03/21 12:58:05;;;;;;;4.85;3.97;;;12.10;99.90;;;;;;4992219;28;20235;-65
2023/03/21 13:00:36;;;;;;;5.68;3.67;;;12.10;99.90;;;;;;4992357;28;20191;-66
2023/03/21 13:03:26;;;;;;;4.88;3.47;;;12.20;99.90;;;;;;4991668;28;20186;-66
2023/03/21 13:06:05;;;;;;;4.63;3.45;;;12.20;99.90;;;;;;4991669;28;20180;-67
2023/03/21 13:08:41;;;;;;;4.32;3.22;;;12.20;99.90;;;;;;4974388;28;20210;-66
2023/03/21 13:11:14;;;;;;;5.65;3.67;;;12.30;99.90;;;;;;4972611;28;20208;-66
2023/03/21 13:13:57;;;;;;;4.90;4.20;;;12.30;99.90;;;;;;4979063;28;20168;-66
2023/03/21 13:16:29;;;;;;;5.53;4.10;;;12.40;99.90;;;;;;4983612;28;20200;-66